Terminal Aerodrome Forecast
Issued by NWS Memphis, TN

Home | Current Version | Previous Version | Text Only | Print | Product List | Glossary On
Versions: 1 2 3 4 5 6 7 8 9 10 11 12 13 14 15 16 17 18 19 20 21 22 23 24 25 26 27
000
FTUS44 KMEG 311738
TAFMEM
TAF
KMEM 311738Z 3118/0118 12006KT P6SM BKN120 OVC250
     FM010500 17010KT P6SM OVC100
     FM011100 18012G18KT P6SM VCSH OVC050
     FM011300 18015G22KT 5SM -RA BR OVC015
     FM011500 19015G22KT 3SM -RA BR OVC009=

USA.gov is the U.S. government's official web portal to all federal, state and local government web resources and services.